createdAt,value
2022-07-29T00:00:06.898Z,1.60
2022-07-29T00:02:33.937Z,1.77
2022-07-29T00:05:01.106Z,1.58
2022-07-29T00:07:28.192Z,1.60
2022-07-29T00:09:55.140Z,1.70
2022-07-29T00:12:25.625Z,1.85
2022-07-29T00:14:57.926Z,1.65
2022-07-29T00:17:25.800Z,1.60
2022-07-29T00:19:53.484Z,1.90
2022-07-29T00:22:21.054Z,1.70
2022-07-29T00:24:51.081Z,2.10
2022-07-29T00:27:19.052Z,1.73
2022-07-29T00:29:46.224Z,1.73
2022-07-29T00:32:13.152Z,1.70
2022-07-29T00:34:59.022Z,1.60
2022-07-29T00:37:26.032Z,1.60
2022-07-29T00:39:52.933Z,1.70
2022-07-29T00:42:19.912Z,1.70
2022-07-29T00:44:46.858Z,1.70
2022-07-29T00:47:14.099Z,1.60
2022-07-29T00:49:42.449Z,1.60
2022-07-29T00:52:11.539Z,1.90
2022-07-29T00:54:44.276Z,1.75
2022-07-29T00:57:12.578Z,1.87
2022-07-29T00:59:39.562Z,1.83
2022-07-29T01:02:06.567Z,1.88
2022-07-29T01:04:33.981Z,1.60
2022-07-29T01:07:02.984Z,1.83
2022-07-29T01:09:45.484Z,1.80
2022-07-29T01:12:20.984Z,1.80
2022-07-29T01:14:49.700Z,1.70
2022-07-29T01:17:19.472Z,1.92
2022-07-29T01:20:07.043Z,1.92
2022-07-29T01:22:54.985Z,1.90
2022-07-29T01:25:31.080Z,1.80
2022-07-29T01:28:00.931Z,1.80
2022-07-29T01:30:33.583Z,1.90
2022-07-29T01:33:06.983Z,1.73
2022-07-29T01:35:40.422Z,1.80
2022-07-29T01:38:14.524Z,1.87
2022-07-29T01:40:50.388Z,1.80
2022-07-29T01:43:24.714Z,1.77
2022-07-29T01:46:01.382Z,1.90
2022-07-29T01:48:46.320Z,1.90
2022-07-29T01:51:21.301Z,1.70
2022-07-29T01:53:51.277Z,1.80
2022-07-29T01:56:20.862Z,1.80
2022-07-29T01:58:49.274Z,2.35
2022-07-29T02:01:17.450Z,1.80
2022-07-29T02:03:47.085Z,1.90
2022-07-29T02:06:17.357Z,1.90
2022-07-29T02:08:45.370Z,1.65
2022-07-29T02:11:12.548Z,1.80
2022-07-29T02:13:40.133Z,1.80
2022-07-29T02:16:09.452Z,1.80
2022-07-29T02:18:40.104Z,1.90
2022-07-29T02:21:15.049Z,2.10
2022-07-29T02:23:51.234Z,2.10
2022-07-29T02:26:20.335Z,1.92
2022-07-29T02:28:49.378Z,1.80
2022-07-29T02:31:18.616Z,1.73
2022-07-29T02:33:48.144Z,2.00
2022-07-29T02:36:16.695Z,2.00
2022-07-29T02:38:54.470Z,1.80
2022-07-29T02:41:27.283Z,1.60
2022-07-29T02:44:02.721Z,2.10
2022-07-29T02:46:32.775Z,1.90
2022-07-29T02:49:17.978Z,1.70
2022-07-29T02:51:58.559Z,1.90
2022-07-29T02:54:44.517Z,1.92
2022-07-29T02:57:27.233Z,1.90
2022-07-29T02:59:58.525Z,2.00
2022-07-29T03:02:27.967Z,2.00
2022-07-29T03:04:56.837Z,1.95
2022-07-29T03:07:25.582Z,2.10
2022-07-29T03:09:53.593Z,1.98
2022-07-29T03:12:21.072Z,2.07
2022-07-29T03:14:48.626Z,1.90
2022-07-29T03:17:16.304Z,1.80
2022-07-29T03:19:43.919Z,2.10
2022-07-29T03:22:11.307Z,2.20
2022-07-29T03:24:38.659Z,2.30
2022-07-29T03:27:06.373Z,2.20
2022-07-29T03:29:34.729Z,2.20
2022-07-29T03:32:07.270Z,2.20
2022-07-29T03:34:36.309Z,2.17
2022-07-29T03:37:03.235Z,2.20
2022-07-29T03:39:35.706Z,2.20
2022-07-29T03:42:05.511Z,2.05
2022-07-29T03:44:33.628Z,2.15
2022-07-29T03:47:03.003Z,1.95
2022-07-29T03:49:31.973Z,2.17
2022-07-29T03:51:59.158Z,2.00
2022-07-29T03:54:26.703Z,2.17
2022-07-29T03:56:55.156Z,2.28
2022-07-29T03:59:23.541Z,2.25
2022-07-29T04:01:51.425Z,2.30
2022-07-29T04:04:18.946Z,2.20
2022-07-29T04:06:48.162Z,2.30
2022-07-29T04:09:15.913Z,2.37
2022-07-29T04:12:01.492Z,2.43
2022-07-29T04:14:29.965Z,2.28
2022-07-29T04:16:56.817Z,2.47
2022-07-29T04:19:23.715Z,2.35
2022-07-29T04:21:50.576Z,2.30
2022-07-29T04:24:17.977Z,2.47
2022-07-29T04:26:47.233Z,2.42
2022-07-29T04:29:15.394Z,2.20
2022-07-29T04:31:43.263Z,2.53
2022-07-29T04:34:11.104Z,2.30
2022-07-29T04:36:37.926Z,2.10
2022-07-29T04:39:05.338Z,2.30
2022-07-29T04:41:33.254Z,2.28
2022-07-29T04:44:05.951Z,2.70
2022-07-29T04:46:36.026Z,2.47
2022-07-29T04:49:04.093Z,3.00
2022-07-29T04:51:31.464Z,3.03
2022-07-29T04:53:58.386Z,2.83
2022-07-29T04:56:25.292Z,2.95
2022-07-29T04:58:52.235Z,2.90
2022-07-29T05:01:19.368Z,3.28
2022-07-29T05:03:46.603Z,3.30
2022-07-29T05:06:13.525Z,3.07
2022-07-29T05:08:41.946Z,3.55
2022-07-29T05:11:12.234Z,3.20
2022-07-29T05:13:46.341Z,3.42
2022-07-29T05:16:15.127Z,3.20
2022-07-29T05:18:43.224Z,3.20
2022-07-29T05:21:10.349Z,3.15
2022-07-29T05:23:37.238Z,2.58
2022-07-29T05:26:04.204Z,2.85
2022-07-29T05:28:35.884Z,3.00
2022-07-29T05:31:02.931Z,2.67
2022-07-29T05:33:35.544Z,2.67
2022-07-29T05:36:08.297Z,2.80
2022-07-29T05:38:38.721Z,2.83
2022-07-29T05:41:06.295Z,2.72
2022-07-29T05:43:33.246Z,3.10
2022-07-29T05:46:00.349Z,3.15
2022-07-29T05:48:27.432Z,3.10
2022-07-29T05:50:54.875Z,3.33
2022-07-29T05:53:22.009Z,3.30
2022-07-29T05:55:49.735Z,3.30
2022-07-29T05:58:17.137Z,3.10
2022-07-29T06:00:44.439Z,2.83
2022-07-29T06:03:11.600Z,2.90
2022-07-29T06:05:38.432Z,2.75
2022-07-29T06:08:08.073Z,2.35
2022-07-29T06:10:38.569Z,2.75
2022-07-29T06:13:05.611Z,2.80
2022-07-29T06:15:32.766Z,2.60
2022-07-29T06:18:01.683Z,2.55
2022-07-29T06:20:33.184Z,2.67
2022-07-29T06:23:00.914Z,2.72
2022-07-29T06:25:31.367Z,2.53
2022-07-29T06:27:58.867Z,2.50
2022-07-29T06:30:25.861Z,2.80
2022-07-29T06:32:52.915Z,2.63
2022-07-29T06:35:39.116Z,2.50
2022-07-29T06:38:12.026Z,2.40
2022-07-29T06:41:06.969Z,2.63
2022-07-29T06:43:50.251Z,2.42
2022-07-29T06:46:19.197Z,2.47
2022-07-29T06:48:47.068Z,2.80
2022-07-29T06:51:14.462Z,2.70
2022-07-29T06:53:59.979Z,2.60
2022-07-29T06:56:28.560Z,2.80
2022-07-29T06:58:55.429Z,2.60
2022-07-29T07:01:22.518Z,2.70
2022-07-29T07:03:49.618Z,2.60
2022-07-29T07:06:16.990Z,2.80
2022-07-29T07:08:43.857Z,2.78
2022-07-29T07:11:10.756Z,2.90
2022-07-29T07:13:37.653Z,2.70
2022-07-29T07:16:05.470Z,2.47
2022-07-29T07:18:32.376Z,2.78
2022-07-29T07:21:00.508Z,2.90
2022-07-29T07:23:27.579Z,2.50
2022-07-29T07:25:54.500Z,2.75
2022-07-29T07:28:25.061Z,2.67
2022-07-29T07:30:53.124Z,2.58
2022-07-29T07:33:20.185Z,2.67
2022-07-29T07:35:47.322Z,2.60
2022-07-29T07:38:14.467Z,2.75
2022-07-29T07:40:41.840Z,2.67
2022-07-29T07:43:08.889Z,2.50
2022-07-29T07:45:38.049Z,2.55
2022-07-29T07:48:05.910Z,2.70
2022-07-29T07:50:32.908Z,2.70
2022-07-29T07:53:00.390Z,2.70
2022-07-29T07:55:27.488Z,2.60
2022-07-29T07:57:55.479Z,2.72
2022-07-29T08:00:23.883Z,2.97
2022-07-29T08:02:51.549Z,2.83
2022-07-29T08:05:19.335Z,2.88
2022-07-29T08:07:47.830Z,2.35
2022-07-29T08:10:36.411Z,2.58
2022-07-29T08:13:10.035Z,2.60
2022-07-29T08:15:36.974Z,2.53
2022-07-29T08:18:08.760Z,2.40
2022-07-29T08:20:37.112Z,2.70
2022-07-29T08:23:05.249Z,2.60
2022-07-29T08:25:32.651Z,2.50
2022-07-29T08:28:01.558Z,2.23
2022-07-29T08:30:28.579Z,2.20
2022-07-29T08:32:56.065Z,2.20
2022-07-29T08:35:24.682Z,2.13
2022-07-29T08:37:52.507Z,2.00
2022-07-29T08:40:20.896Z,2.10
2022-07-29T08:42:58.886Z,2.10
2022-07-29T08:45:26.923Z,2.60
2022-07-29T08:47:53.884Z,2.30
2022-07-29T08:50:20.832Z,2.10
2022-07-29T08:52:49.972Z,2.10
2022-07-29T08:55:19.736Z,2.10
2022-07-29T08:57:52.039Z,2.13
2022-07-29T09:00:23.211Z,2.35
2022-07-29T09:02:57.216Z,2.35
2022-07-29T09:05:25.733Z,2.00
2022-07-29T09:07:53.072Z,2.10
2022-07-29T09:10:19.968Z,2.10
2022-07-29T09:12:47.203Z,1.95
2022-07-29T09:15:14.131Z,2.22
2022-07-29T09:17:42.890Z,2.03
2022-07-29T09:20:15.701Z,2.10
2022-07-29T09:22:42.785Z,2.00
2022-07-29T09:25:12.487Z,2.03
2022-07-29T09:27:39.521Z,1.70
2022-07-29T09:30:11.655Z,2.00
2022-07-29T09:32:59.942Z,1.75
2022-07-29T09:35:28.328Z,1.95
2022-07-29T09:37:55.572Z,2.10
2022-07-29T09:40:25.662Z,2.28
2022-07-29T09:42:55.101Z,2.10
2022-07-29T09:45:32.972Z,2.10
2022-07-29T09:48:03.991Z,2.10
2022-07-29T09:50:39.098Z,2.10
2022-07-29T09:53:06.068Z,2.10
2022-07-29T09:55:33.255Z,1.95
2022-07-29T09:58:18.705Z,1.92
2022-07-29T10:00:47.182Z,2.03
2022-07-29T10:03:16.587Z,2.10
2022-07-29T10:05:44.735Z,2.60
2022-07-29T10:08:13.413Z,2.15
2022-07-29T10:10:44.058Z,1.90
2022-07-29T10:13:15.681Z,1.83
2022-07-29T10:15:46.229Z,1.60
2022-07-29T10:18:14.834Z,1.90
2022-07-29T10:20:41.924Z,1.80
2022-07-29T10:23:10.002Z,1.92
2022-07-29T10:25:37.124Z,1.83
2022-07-29T10:28:04.311Z,1.83
2022-07-29T10:30:32.563Z,2.05
2022-07-29T10:33:27.437Z,1.88
2022-07-29T10:36:45.156Z,1.90
2022-07-29T10:39:41.801Z,1.73
2022-07-29T10:45:08.704Z,2.03
2022-07-29T10:47:35.761Z,1.80
2022-07-29T10:50:05.485Z,1.70
2022-07-29T10:52:50.713Z,1.70
2022-07-29T10:55:47.728Z,1.70
2022-07-29T10:58:19.629Z,1.10
2022-07-29T11:00:52.201Z,1.10
2022-07-29T11:03:50.562Z,1.10
2022-07-29T11:06:26.158Z,1.40
2022-07-29T11:09:16.693Z,1.35
2022-07-29T11:11:44.049Z,1.10
2022-07-29T11:14:14.837Z,1.30
2022-07-29T11:17:07.000Z,1.27
2022-07-29T11:19:34.810Z,1.30
2022-07-29T11:22:03.087Z,1.00
2022-07-29T11:24:33.112Z,1.10
2022-07-29T11:27:23.265Z,1.35
2022-07-29T11:30:02.100Z,1.20
2022-07-29T11:32:48.595Z,1.45
2022-07-29T11:35:38.249Z,1.33
2022-07-29T11:38:27.953Z,1.20
2022-07-29T11:41:36.874Z,1.10
2022-07-29T11:44:04.675Z,1.40
2022-07-29T11:46:54.113Z,1.50
2022-07-29T11:49:32.207Z,1.30
2022-07-29T11:52:04.032Z,1.20
2022-07-29T11:54:57.286Z,1.10
2022-07-29T11:57:22.778Z,1.20
2022-07-29T12:00:12.305Z,1.23
2022-07-29T12:02:48.322Z,1.30
2022-07-29T12:05:22.248Z,1.23
2022-07-29T12:08:08.045Z,1.40
2022-07-29T12:10:40.896Z,1.50
2022-07-29T12:13:09.951Z,1.20
2022-07-29T12:15:45.910Z,1.40
2022-07-29T12:18:24.383Z,1.30
2022-07-29T12:20:59.106Z,1.20
2022-07-29T12:23:34.996Z,1.23
2022-07-29T12:26:07.622Z,1.40
2022-07-29T12:28:39.551Z,1.33
2022-07-29T12:31:06.642Z,1.40
2022-07-29T12:33:36.067Z,1.30
2022-07-29T12:36:10.441Z,1.20
2022-07-29T12:38:41.831Z,1.08
2022-07-29T12:41:08.913Z,1.20
2022-07-29T12:43:35.984Z,1.20
2022-07-29T12:46:14.428Z,1.30
2022-07-29T12:48:43.117Z,1.20
2022-07-29T12:51:11.132Z,1.00
2022-07-29T12:53:38.941Z,1.08
2022-07-29T12:56:20.645Z,1.25
2022-07-29T12:58:54.001Z,1.50
2022-07-29T13:01:21.874Z,1.20
2022-07-29T13:04:05.109Z,1.42
2022-07-29T13:06:49.693Z,1.08
2022-07-29T13:09:24.851Z,1.30
2022-07-29T13:11:53.681Z,1.30
2022-07-29T13:14:37.920Z,1.42
2022-07-29T13:17:10.641Z,1.40
2022-07-29T13:19:43.371Z,1.50
2022-07-29T13:22:11.846Z,1.40
2022-07-29T13:24:50.397Z,1.50
2022-07-29T13:27:22.719Z,1.50
2022-07-29T13:29:52.231Z,1.53
2022-07-29T13:32:27.914Z,1.38
2022-07-29T13:35:01.663Z,1.10
2022-07-29T13:37:33.940Z,0.90
2022-07-29T13:40:01.159Z,1.20
2022-07-29T13:42:28.304Z,1.10
2022-07-29T13:44:55.254Z,1.20
2022-07-29T13:47:22.960Z,1.20
2022-07-29T13:50:04.004Z,1.20
2022-07-29T13:52:33.093Z,1.05
2022-07-29T13:55:00.311Z,1.20
2022-07-29T13:57:27.275Z,1.30
2022-07-29T13:59:55.031Z,1.15
2022-07-29T14:02:25.960Z,1.15
2022-07-29T14:04:54.871Z,1.70
2022-07-29T14:07:22.285Z,1.10
2022-07-29T14:09:49.231Z,1.40
2022-07-29T14:12:16.181Z,1.35
2022-07-29T14:14:43.189Z,1.20
2022-07-29T14:17:10.321Z,1.25
2022-07-29T14:19:39.429Z,1.20
2022-07-29T14:22:08.688Z,1.10
2022-07-29T14:24:37.430Z,1.15
2022-07-29T14:27:05.607Z,1.20
2022-07-29T14:29:36.839Z,1.20
2022-07-29T14:32:06.125Z,1.20
2022-07-29T14:34:34.676Z,1.20
2022-07-29T14:37:01.663Z,1.30
2022-07-29T14:39:31.980Z,1.30
2022-07-29T14:42:00.347Z,1.35
2022-07-29T14:44:32.142Z,1.20
2022-07-29T14:47:07.655Z,1.10
2022-07-29T14:49:35.859Z,1.20
2022-07-29T14:52:03.164Z,1.25
2022-07-29T14:54:30.017Z,1.30
2022-07-29T14:56:58.471Z,1.17
2022-07-29T14:59:26.051Z,1.17
2022-07-29T15:01:53.267Z,1.50
2022-07-29T15:04:20.236Z,1.20
2022-07-29T15:06:47.185Z,1.17
2022-07-29T15:09:14.622Z,1.10
2022-07-29T15:11:41.639Z,1.17
2022-07-29T15:14:08.554Z,1.20
2022-07-29T15:16:41.995Z,1.05
2022-07-29T15:19:11.583Z,1.20
2022-07-29T15:21:48.252Z,1.13
2022-07-29T15:24:19.840Z,1.10
2022-07-29T15:26:47.465Z,1.10
2022-07-29T15:29:15.155Z,1.10
2022-07-29T15:31:42.176Z,0.98
2022-07-29T15:34:09.097Z,1.10
2022-07-29T15:36:51.357Z,1.05
2022-07-29T15:39:19.935Z,1.17
2022-07-29T15:41:47.098Z,1.33
2022-07-29T15:44:14.046Z,1.08
2022-07-29T15:46:59.910Z,1.00
2022-07-29T15:49:48.368Z,1.00
2022-07-29T15:52:19.088Z,1.20
2022-07-29T15:54:51.790Z,1.05
2022-07-29T15:57:18.628Z,1.27
2022-07-29T15:59:45.536Z,1.40
2022-07-29T16:02:12.463Z,1.10
2022-07-29T16:04:39.502Z,1.40
2022-07-29T16:07:06.962Z,1.45
2022-07-29T16:09:33.881Z,1.30
2022-07-29T16:12:00.778Z,1.38
2022-07-29T16:14:28.164Z,1.30
2022-07-29T16:16:56.440Z,1.30
2022-07-29T16:19:23.772Z,1.20
2022-07-29T16:21:50.720Z,1.80
2022-07-29T16:24:18.204Z,1.30
2022-07-29T16:26:45.087Z,1.40
2022-07-29T16:29:12.008Z,1.35
2022-07-29T16:31:39.116Z,1.30
2022-07-29T16:34:06.132Z,1.42
2022-07-29T16:36:33.016Z,1.40
2022-07-29T16:38:59.994Z,1.30
2022-07-29T16:41:26.958Z,1.50
2022-07-29T16:43:55.224Z,1.40
2022-07-29T16:46:22.459Z,1.60
2022-07-29T16:48:51.312Z,1.45
2022-07-29T16:51:18.378Z,1.42
2022-07-29T16:53:45.587Z,1.77
2022-07-29T16:56:15.939Z,1.80
2022-07-29T16:58:44.013Z,1.80
2022-07-29T17:01:11.850Z,1.40
2022-07-29T17:04:00.519Z,1.30
2022-07-29T17:06:29.428Z,1.48
2022-07-29T17:08:56.882Z,1.50
2022-07-29T17:11:53.270Z,1.48
2022-07-29T17:14:11.099Z,1.48
2022-07-29T17:16:38.166Z,1.45
2022-07-29T17:19:05.249Z,1.30
2022-07-29T17:21:32.195Z,1.45
2022-07-29T17:23:59.406Z,1.20
2022-07-29T17:26:28.341Z,1.20
2022-07-29T17:28:55.640Z,1.38
2022-07-29T17:31:23.328Z,1.20
2022-07-29T17:33:50.647Z,1.52
2022-07-29T17:36:29.369Z,1.50
2022-07-29T17:38:59.173Z,1.70
2022-07-29T17:41:26.216Z,2.00
2022-07-29T17:43:53.991Z,1.52
2022-07-29T17:46:22.609Z,1.20
2022-07-29T17:48:49.666Z,1.30
2022-07-29T17:51:16.712Z,1.30
2022-07-29T17:53:43.792Z,1.20
2022-07-29T17:56:10.683Z,1.30
2022-07-29T17:58:38.453Z,1.23
2022-07-29T18:01:05.691Z,1.42
2022-07-29T18:03:33.044Z,1.20
2022-07-29T18:06:00.699Z,1.10
2022-07-29T18:08:28.178Z,1.30
2022-07-29T18:10:55.781Z,1.10
2022-07-29T18:13:22.759Z,1.50
2022-07-29T18:15:49.924Z,1.40
2022-07-29T18:18:18.276Z,1.40
2022-07-29T18:20:46.215Z,1.08
2022-07-29T18:23:14.657Z,1.33
2022-07-29T18:25:41.567Z,1.00
2022-07-29T18:28:08.583Z,1.27
2022-07-29T18:30:37.737Z,1.05
2022-07-29T18:33:20.598Z,1.38
2022-07-29T18:35:50.436Z,1.35
2022-07-29T18:38:17.611Z,1.30
2022-07-29T18:40:45.774Z,1.40
2022-07-29T18:43:13.622Z,1.80
2022-07-29T18:45:42.529Z,1.60
2022-07-29T18:48:13.243Z,1.10
2022-07-29T18:50:41.469Z,1.50
2022-07-29T18:53:08.502Z,1.30
2022-07-29T18:55:35.466Z,1.38
2022-07-29T18:58:03.181Z,1.33
2022-07-29T19:00:30.583Z,1.60
2022-07-29T19:02:57.574Z,1.50
2022-07-29T19:05:24.919Z,1.50
2022-07-29T19:07:52.092Z,1.50
2022-07-29T19:10:19.013Z,1.40
2022-07-29T19:12:45.951Z,2.27
2022-07-29T19:15:12.946Z,1.50
2022-07-29T19:17:48.601Z,1.55
2022-07-29T19:20:15.919Z,1.70
2022-07-29T19:22:42.927Z,1.90
2022-07-29T19:25:10.111Z,1.98
2022-07-29T19:27:37.060Z,1.60
2022-07-29T19:30:06.415Z,1.70
2022-07-29T19:32:33.379Z,1.60
2022-07-29T19:35:18.683Z,2.00
2022-07-29T19:37:45.563Z,2.10
2022-07-29T19:40:13.131Z,2.00
2022-07-29T19:42:40.083Z,2.28
2022-07-29T19:45:07.597Z,1.70
2022-07-29T19:47:34.495Z,2.00
2022-07-29T19:50:01.734Z,1.60
2022-07-29T19:52:28.934Z,1.70
2022-07-29T19:54:55.861Z,2.00
2022-07-29T19:57:22.834Z,1.63
2022-07-29T19:59:51.204Z,2.25
2022-07-29T20:02:18.269Z,2.05
2022-07-29T20:04:45.451Z,1.77
2022-07-29T20:07:13.536Z,2.10
2022-07-29T20:09:40.927Z,2.00
2022-07-29T20:12:11.327Z,2.17
2022-07-29T20:14:38.751Z,2.33
2022-07-29T20:17:05.739Z,1.95
2022-07-29T20:19:33.230Z,1.92
2022-07-29T20:22:00.333Z,2.17
2022-07-29T20:24:27.508Z,2.10
2022-07-29T20:26:54.437Z,2.05
2022-07-29T20:29:21.599Z,2.20
2022-07-29T20:31:53.257Z,2.15
2022-07-29T20:34:23.598Z,1.83
2022-07-29T20:36:50.535Z,2.35
2022-07-29T20:39:17.695Z,2.10
2022-07-29T20:41:44.656Z,2.13
2022-07-29T20:44:11.582Z,2.70
2022-07-29T20:46:39.472Z,2.40
2022-07-29T20:49:06.508Z,2.40
2022-07-29T20:51:43.958Z,2.65
2022-07-29T20:54:11.771Z,2.50
2022-07-29T20:56:39.046Z,2.55
2022-07-29T20:59:05.919Z,2.45
2022-07-29T21:01:32.936Z,2.55
2022-07-29T21:04:01.324Z,2.33
2022-07-29T21:06:28.272Z,2.30
2022-07-29T21:08:59.633Z,2.42
2022-07-29T21:11:44.670Z,2.58
2022-07-29T21:14:30.270Z,2.47
2022-07-29T21:16:57.464Z,2.40
2022-07-29T21:19:24.480Z,3.03
2022-07-29T21:21:51.391Z,2.65
2022-07-29T21:24:19.223Z,2.65
2022-07-29T21:26:54.442Z,2.70
2022-07-29T21:29:26.799Z,2.78
2022-07-29T21:31:53.679Z,2.50
2022-07-29T21:34:20.557Z,2.72
2022-07-29T21:36:48.738Z,2.85
2022-07-29T21:39:15.995Z,2.80
2022-07-29T21:41:42.886Z,2.60
2022-07-29T21:44:09.774Z,2.80
2022-07-29T21:46:36.791Z,2.80
2022-07-29T21:49:04.263Z,2.72
2022-07-29T21:51:31.237Z,2.73
2022-07-29T21:53:58.180Z,2.65
2022-07-29T21:56:27.725Z,2.90
2022-07-29T21:58:55.897Z,2.60
2022-07-29T22:01:23.802Z,2.95
2022-07-29T22:03:50.826Z,2.83
2022-07-29T22:06:18.258Z,2.75
2022-07-29T22:08:46.088Z,2.80
2022-07-29T22:11:13.377Z,2.70
2022-07-29T22:13:40.540Z,2.63
2022-07-29T22:16:09.484Z,2.63
2022-07-29T22:18:36.343Z,3.40
2022-07-29T22:21:03.228Z,3.20
2022-07-29T22:23:30.067Z,2.78
2022-07-29T22:25:57.231Z,2.80
2022-07-29T22:28:24.158Z,2.80
2022-07-29T22:30:51.013Z,2.90
2022-07-29T22:33:18.322Z,2.70
2022-07-29T22:35:48.948Z,3.15
2022-07-29T22:38:17.545Z,2.70
2022-07-29T22:40:44.613Z,2.65
2022-07-29T22:43:12.776Z,3.60
2022-07-29T22:45:39.726Z,2.90
2022-07-29T22:48:06.830Z,2.63
2022-07-29T22:50:33.987Z,2.60
2022-07-29T22:53:00.903Z,2.90
2022-07-29T22:55:27.821Z,3.00
2022-07-29T22:57:54.745Z,2.90
2022-07-29T23:00:21.655Z,2.80
2022-07-29T23:02:48.532Z,2.60
2022-07-29T23:05:15.939Z,2.75
2022-07-29T23:07:43.060Z,2.60
2022-07-29T23:10:10.367Z,2.80
2022-07-29T23:12:37.500Z,3.07
2022-07-29T23:15:05.843Z,2.90
2022-07-29T23:17:36.584Z,3.10
2022-07-29T23:20:08.942Z,2.87
2022-07-29T23:22:36.843Z,2.50
2022-07-29T23:25:04.971Z,3.05
2022-07-29T23:27:32.773Z,2.50
2022-07-29T23:29:59.681Z,3.05
2022-07-29T23:32:26.553Z,3.10
2022-07-29T23:34:53.634Z,3.00
2022-07-29T23:37:20.542Z,2.80
2022-07-29T23:39:47.510Z,3.00
2022-07-29T23:42:14.451Z,2.90
2022-07-29T23:44:41.433Z,2.97
2022-07-29T23:47:08.505Z,3.25
2022-07-29T23:49:35.689Z,3.00
2022-07-29T23:52:02.578Z,3.33
2022-07-29T23:54:29.458Z,3.00
2022-07-29T23:56:57.837Z,3.08
2022-07-29T23:59:25.353Z,2.92
